sensor_id;sensor_type;location;lat;lon;timestamp;pressure;altitude;pressure_sealevel;temperature;humidity
25080;BME280;13071;48.868;9.996;2023-05-23T00:01:50;96282.06;;;16.76;97.66
25080;BME280;13071;48.868;9.996;2023-05-23T00:04:19;96280.84;;;16.70;97.07
25080;BME280;13071;48.868;9.996;2023-05-23T00:06:45;96282.31;;;16.61;97.81
25080;BME280;13071;48.868;9.996;2023-05-23T00:09:14;96282.38;;;16.68;97.66
25080;BME280;13071;48.868;9.996;2023-05-23T00:11:41;96282.81;;;16.73;97.77
25080;BME280;13071;48.868;9.996;2023-05-23T00:14:10;96279.00;;;16.85;97.02
25080;BME280;13071;48.868;9.996;2023-05-23T00:16:40;96282.00;;;16.69;97.55
25080;BME280;13071;48.868;9.996;2023-05-23T00:19:09;96287.00;;;16.60;98.14
25080;BME280;13071;48.868;9.996;2023-05-23T00:21:35;96293.91;;;16.51;98.58
25080;BME280;13071;48.868;9.996;2023-05-23T00:24:02;96288.06;;;16.52;98.23
25080;BME280;13071;48.868;9.996;2023-05-23T00:26:30;96290.47;;;16.57;98.38
25080;BME280;13071;48.868;9.996;2023-05-23T00:28:56;96297.09;;;16.56;98.64
25080;BME280;13071;48.868;9.996;2023-05-23T00:31:23;96293.47;;;16.45;99.07
25080;BME280;13071;48.868;9.996;2023-05-23T00:33:51;96289.59;;;16.50;98.61
25080;BME280;13071;48.868;9.996;2023-05-23T00:36:18;96297.31;;;16.40;98.96
25080;BME280;13071;48.868;9.996;2023-05-23T00:38:44;96299.09;;;16.22;99.46
25080;BME280;13071;48.868;9.996;2023-05-23T00:41:11;96292.44;;;16.23;99.54
25080;BME280;13071;48.868;9.996;2023-05-23T00:43:37;96297.41;;;16.14;99.39
25080;BME280;13071;48.868;9.996;2023-05-23T00:46:04;96290.34;;;16.10;99.54
25080;BME280;13071;48.868;9.996;2023-05-23T00:48:31;96284.88;;;16.06;99.85
25080;BME280;13071;48.868;9.996;2023-05-23T00:50:59;96290.22;;;15.99;100.00
25080;BME280;13071;48.868;9.996;2023-05-23T00:53:26;96287.28;;;16.15;100.00
25080;BME280;13071;48.868;9.996;2023-05-23T00:55:53;96291.22;;;15.84;100.00
25080;BME280;13071;48.868;9.996;2023-05-23T00:58:19;96285.56;;;15.99;100.00
25080;BME280;13071;48.868;9.996;2023-05-23T01:00:46;96275.84;;;16.02;100.00
25080;BME280;13071;48.868;9.996;2023-05-23T01:03:14;96290.28;;;16.03;100.00
25080;BME280;13071;48.868;9.996;2023-05-23T01:05:42;96292.75;;;16.15;100.00
25080;BME280;13071;48.868;9.996;2023-05-23T01:08:10;96299.44;;;16.21;100.00
25080;BME280;13071;48.868;9.996;2023-05-23T01:10:40;96297.91;;;16.23;100.00
25080;BME280;13071;48.868;9.996;2023-05-23T01:13:16;96301.16;;;15.99;100.00
25080;BME280;13071;48.868;9.996;2023-05-23T01:15:49;96303.38;;;15.90;100.00
25080;BME280;13071;48.868;9.996;2023-05-23T01:18:23;96300.59;;;15.83;100.00
25080;BME280;13071;48.868;9.996;2023-05-23T01:20:54;96300.59;;;15.83;100.00
25080;BME280;13071;48.868;9.996;2023-05-23T01:23:42;96303.34;;;15.86;100.00
25080;BME280;13071;48.868;9.996;2023-05-23T01:26:30;96293.50;;;15.78;100.00
25080;BME280;13071;48.868;9.996;2023-05-23T01:29:03;96296.25;;;15.78;100.00
25080;BME280;13071;48.868;9.996;2023-05-23T01:31:35;96303.03;;;15.91;100.00
25080;BME280;13071;48.868;9.996;2023-05-23T01:34:03;96301.44;;;15.90;100.00
25080;BME280;13071;48.868;9.996;2023-05-23T01:36:32;96306.06;;;15.86;100.00
25080;BME280;13071;48.868;9.996;2023-05-23T01:39:00;96302.22;;;15.91;100.00
25080;BME280;13071;48.868;9.996;2023-05-23T01:41:27;96304.53;;;15.89;100.00
25080;BME280;13071;48.868;9.996;2023-05-23T01:43:53;96302.91;;;15.84;100.00
25080;BME280;13071;48.868;9.996;2023-05-23T01:46:23;96303.72;;;15.85;100.00
25080;BME280;13071;48.868;9.996;2023-05-23T01:48:51;96312.28;;;15.83;100.00
25080;BME280;13071;48.868;9.996;2023-05-23T01:51:19;96311.75;;;15.74;100.00
25080;BME280;13071;48.868;9.996;2023-05-23T01:53:46;96311.63;;;15.93;100.00
25080;BME280;13071;48.868;9.996;2023-05-23T01:56:14;96304.75;;;15.73;100.00
25080;BME280;13071;48.868;9.996;2023-05-23T01:58:40;96308.28;;;15.74;100.00
25080;BME280;13071;48.868;9.996;2023-05-23T02:01:07;96315.56;;;15.66;100.00
25080;BME280;13071;48.868;9.996;2023-05-23T02:03:36;96318.41;;;15.73;100.00
25080;BME280;13071;48.868;9.996;2023-05-23T02:06:03;96318.28;;;15.66;100.00
25080;BME280;13071;48.868;9.996;2023-05-23T02:08:29;96329.19;;;15.66;100.00
25080;BME280;13071;48.868;9.996;2023-05-23T02:10:56;96317.19;;;15.71;100.00
25080;BME280;13071;48.868;9.996;2023-05-23T02:13:22;96315.88;;;15.61;100.00
25080;BME280;13071;48.868;9.996;2023-05-23T02:15:49;96324.09;;;15.65;100.00
25080;BME280;13071;48.868;9.996;2023-05-23T02:18:15;96320.91;;;15.59;100.00
25080;BME280;13071;48.868;9.996;2023-05-23T02:20:44;96317.78;;;15.57;100.00
25080;BME280;13071;48.868;9.996;2023-05-23T02:23:11;96322.22;;;15.42;100.00
25080;BME280;13071;48.868;9.996;2023-05-23T02:25:37;96322.81;;;15.29;100.00
25080;BME280;13071;48.868;9.996;2023-05-23T02:28:04;96323.97;;;15.28;100.00
25080;BME280;13071;48.868;9.996;2023-05-23T02:30:31;96327.56;;;15.35;100.00
25080;BME280;13071;48.868;9.996;2023-05-23T02:32:57;96320.47;;;15.31;100.00
25080;BME280;13071;48.868;9.996;2023-05-23T02:35:24;96312.63;;;15.26;100.00
25080;BME280;13071;48.868;9.996;2023-05-23T02:37:52;96317.97;;;15.19;100.00
25080;BME280;13071;48.868;9.996;2023-05-23T02:40:18;96322.34;;;15.23;100.00
25080;BME280;13071;48.868;9.996;2023-05-23T02:42:45;96324.00;;;15.31;100.00
25080;BME280;13071;48.868;9.996;2023-05-23T02:45:11;96321.75;;;15.37;100.00
25080;BME280;13071;48.868;9.996;2023-05-23T02:47:38;96324.94;;;15.42;100.00
25080;BME280;13071;48.868;9.996;2023-05-23T02:50:05;96331.50;;;15.38;100.00
25080;BME280;13071;48.868;9.996;2023-05-23T02:52:32;96325.03;;;15.49;100.00
25080;BME280;13071;48.868;9.996;2023-05-23T02:55:00;96317.16;;;15.44;100.00
25080;BME280;13071;48.868;9.996;2023-05-23T02:57:27;96321.75;;;15.37;100.00
25080;BME280;13071;48.868;9.996;2023-05-23T02:59:53;96314.59;;;15.51;100.00
25080;BME280;13071;48.868;9.996;2023-05-23T03:02:20;96320.81;;;15.52;100.00
25080;BME280;13071;48.868;9.996;2023-05-23T03:04:46;96312.97;;;15.50;100.00
25080;BME280;13071;48.868;9.996;2023-05-23T03:07:13;96317.25;;;15.48;100.00
25080;BME280;13071;48.868;9.996;2023-05-23T03:09:40;96317.44;;;15.36;100.00
25080;BME280;13071;48.868;9.996;2023-05-23T03:12:08;96315.38;;;15.52;100.00
25080;BME280;13071;48.868;9.996;2023-05-23T03:14:35;96323.25;;;15.34;100.00
25080;BME280;13071;48.868;9.996;2023-05-23T03:17:01;96325.03;;;15.49;100.00
25080;BME280;13071;48.868;9.996;2023-05-23T03:19:29;96325.03;;;15.49;100.00
25080;BME280;13071;48.868;9.996;2023-05-23T03:21:55;96325.31;;;15.41;100.00
25080;BME280;13071;48.868;9.996;2023-05-23T03:24:22;96328.66;;;15.53;100.00
25080;BME280;13071;48.868;9.996;2023-05-23T03:26:48;96333.59;;;15.48;100.00
25080;BME280;13071;48.868;9.996;2023-05-23T03:29:16;96328.81;;;15.41;100.00
25080;BME280;13071;48.868;9.996;2023-05-23T03:31:43;96331.50;;;15.38;100.00
25080;BME280;13071;48.868;9.996;2023-05-23T03:34:09;96329.19;;;15.40;100.00
25080;BME280;13071;48.868;9.996;2023-05-23T03:36:37;96329.63;;;15.42;100.00
25080;BME280;13071;48.868;9.996;2023-05-23T03:39:04;96331.22;;;15.46;100.00
25080;BME280;13071;48.868;9.996;2023-05-23T03:41:31;96341.66;;;15.41;100.00
25080;BME280;13071;48.868;9.996;2023-05-23T03:43:57;96338.16;;;15.40;100.00
25080;BME280;13071;48.868;9.996;2023-05-23T03:46:26;96350.09;;;15.55;100.00
25080;BME280;13071;48.868;9.996;2023-05-23T03:48:52;96350.16;;;15.59;100.00
25080;BME280;13071;48.868;9.996;2023-05-23T03:51:19;96354.53;;;15.67;100.00
25080;BME280;13071;48.868;9.996;2023-05-23T03:53:46;96352.91;;;15.62;100.00
25080;BME280;13071;48.868;9.996;2023-05-23T03:56:12;96359.09;;;15.59;100.00
25080;BME280;13071;48.868;9.996;2023-05-23T03:58:39;96354.06;;;15.61;100.00
25080;BME280;13071;48.868;9.996;2023-05-23T04:01:05;96355.38;;;15.71;100.00
25080;BME280;13071;48.868;9.996;2023-05-23T04:03:34;96346.72;;;15.65;100.00
25080;BME280;13071;48.868;9.996;2023-05-23T04:06:01;96355.22;;;15.60;100.00
25080;BME280;13071;48.868;9.996;2023-05-23T04:08:28;96347.16;;;15.67;100.00
25080;BME280;13071;48.868;9.996;2023-05-23T04:10:58;96347.09;;;15.64;100.00
25080;BME280;13071;48.868;9.996;2023-05-23T04:13:24;96349.84;;;15.64;100.00
25080;BME280;13071;48.868;9.996;2023-05-23T04:15:51;96348.66;;;15.65;100.00
25080;BME280;13071;48.868;9.996;2023-05-23T04:18:20;96359.94;;;15.63;100.00
25080;BME280;13071;48.868;9.996;2023-05-23T04:20:48;96340.94;;;15.70;100.00
25080;BME280;13071;48.868;9.996;2023-05-23T04:23:15;96340.25;;;15.77;100.00
25080;BME280;13071;48.868;9.996;2023-05-23T04:25:42;96339.50;;;15.80;100.00
25080;BME280;13071;48.868;9.996;2023-05-23T04:28:09;96347.28;;;15.78;100.00
25080;BME280;13071;48.868;9.996;2023-05-23T04:30:36;96347.97;;;15.71;100.00
25080;BME280;13071;48.868;9.996;2023-05-23T04:33:03;96353.38;;;15.68;100.00
25080;BME280;13071;48.868;9.996;2023-05-23T04:35:30;96349.63;;;15.79;100.00
25080;BME280;13071;48.868;9.996;2023-05-23T04:37:59;96355.97;;;15.87;100.00
25080;BME280;13071;48.868;9.996;2023-05-23T04:40:27;96361.81;;;15.85;100.00
25080;BME280;13071;48.868;9.996;2023-05-23T04:42:54;96361.81;;;15.85;100.00
25080;BME280;13071;48.868;9.996;2023-05-23T04:45:21;96361.50;;;15.94;100.00
25080;BME280;13071;48.868;9.996;2023-05-23T04:47:47;96369.31;;;15.92;100.00
25080;BME280;13071;48.868;9.996;2023-05-23T04:50:14;96365.78;;;15.91;100.00
25080;BME280;13071;48.868;9.996;2023-05-23T04:52:40;96369.59;;;15.83;100.00
25080;BME280;13071;48.868;9.996;2023-05-23T04:55:09;96376.16;;;15.52;100.00
25080;BME280;13071;48.868;9.996;2023-05-23T04:57:35;96375.63;;;15.70;100.00
25080;BME280;13071;48.868;9.996;2023-05-23T05:00:03;96373.94;;;15.88;100.00
25080;BME280;13071;48.868;9.996;2023-05-23T05:02:34;96368.97;;;15.67;100.00
25080;BME280;13071;48.868;9.996;2023-05-23T05:05:01;96376.75;;;15.95;100.00
25080;BME280;13071;48.868;9.996;2023-05-23T05:07:28;96384.44;;;15.60;100.00
25080;BME280;13071;48.868;9.996;2023-05-23T05:09:55;96376.91;;;15.79;100.00
25080;BME280;13071;48.868;9.996;2023-05-23T05:12:23;96380.22;;;15.92;100.00
25080;BME280;13071;48.868;9.996;2023-05-23T05:14:49;96376.22;;;15.86;100.00
25080;BME280;13071;48.868;9.996;2023-05-23T05:17:16;96382.16;;;15.91;100.00
25080;BME280;13071;48.868;9.996;2023-05-23T05:19:44;96381.94;;;15.74;100.00
25080;BME280;13071;48.868;9.996;2023-05-23T05:22:10;96383.75;;;15.66;100.00
25080;BME280;13071;48.868;9.996;2023-05-23T05:24:37;96390.25;;;15.84;100.00
25080;BME280;13071;48.868;9.996;2023-05-23T05:27:05;96372.84;;;15.96;100.00
25080;BME280;13071;48.868;9.996;2023-05-23T05:29:35;96376.97;;;16.13;100.00
25080;BME280;13071;48.868;9.996;2023-05-23T05:32:02;96384.78;;;16.14;100.00
25080;BME280;13071;48.868;9.996;2023-05-23T05:34:29;96385.16;;;16.13;100.00
25080;BME280;13071;48.868;9.996;2023-05-23T05:36:55;96387.41;;;16.37;100.00
25080;BME280;13071;48.868;9.996;2023-05-23T05:39:23;96392.09;;;16.07;100.00
25080;BME280;13071;48.868;9.996;2023-05-23T05:41:50;96391.66;;;16.34;100.00
25080;BME280;13071;48.868;9.996;2023-05-23T05:44:16;96391.00;;;16.11;100.00
25080;BME280;13071;48.868;9.996;2023-05-23T05:46:44;96395.16;;;16.02;100.00
25080;BME280;13071;48.868;9.996;2023-05-23T05:49:12;96397.00;;;16.24;100.00
25080;BME280;13071;48.868;9.996;2023-05-23T05:51:39;96404.41;;;15.93;100.00
25080;BME280;13071;48.868;9.996;2023-05-23T05:54:06;96403.88;;;15.84;100.00
25080;BME280;13071;48.868;9.996;2023-05-23T05:56:32;96410.19;;;15.88;100.00
25080;BME280;13071;48.868;9.996;2023-05-23T05:58:59;96399.19;;;16.11;100.00
25080;BME280;13071;48.868;9.996;2023-05-23T06:01:25;96399.88;;;16.38;100.00
25080;BME280;13071;48.868;9.996;2023-05-23T06:03:53;96398.22;;;16.60;100.00
25080;BME280;13071;48.868;9.996;2023-05-23T06:06:20;96406.41;;;16.60;100.00
25080;BME280;13071;48.868;9.996;2023-05-23T06:08:47;96407.56;;;16.59;100.00
25080;BME280;13071;48.868;9.996;2023-05-23T06:11:13;96394.63;;;16.56;100.00
25080;BME280;13071;48.868;9.996;2023-05-23T06:13:40;96405.97;;;16.58;100.00
25080;BME280;13071;48.868;9.996;2023-05-23T06:16:06;96410.38;;;16.32;100.00
25080;BME280;13071;48.868;9.996;2023-05-23T06:18:33;96412.59;;;16.57;100.00
25080;BME280;13071;48.868;9.996;2023-05-23T06:21:01;96412.06;;;16.44;100.00
25080;BME280;13071;48.868;9.996;2023-05-23T06:23:27;96402.13;;;16.29;100.00
25080;BME280;13071;48.868;9.996;2023-05-23T06:25:54;96402.81;;;16.52;100.00
25080;BME280;13071;48.868;9.996;2023-05-23T06:28:20;96402.41;;;16.54;100.00
25080;BME280;13071;48.868;9.996;2023-05-23T06:30:47;96415.53;;;16.71;100.00
25080;BME280;13071;48.868;9.996;2023-05-23T06:33:14;96407.94;;;16.57;100.00
25080;BME280;13071;48.868;9.996;2023-05-23T06:35:41;96404.28;;;16.79;100.00
25080;BME280;13071;48.868;9.996;2023-05-23T06:38:09;96408.84;;;16.68;100.00
25080;BME280;13071;48.868;9.996;2023-05-23T06:40:35;96412.66;;;16.60;100.00
25080;BME280;13071;48.868;9.996;2023-05-23T06:43:02;96415.78;;;16.59;100.00
25080;BME280;13071;48.868;9.996;2023-05-23T06:45:29;96416.00;;;16.47;100.00
25080;BME280;13071;48.868;9.996;2023-05-23T06:47:55;96417.97;;;16.50;100.00
25080;BME280;13071;48.868;9.996;2023-05-23T06:50:22;96419.31;;;16.63;100.00
25080;BME280;13071;48.868;9.996;2023-05-23T06:52:48;96421.72;;;16.38;100.00
25080;BME280;13071;48.868;9.996;2023-05-23T06:55:16;96423.00;;;16.77;100.00
25080;BME280;13071;48.868;9.996;2023-05-23T06:57:43;96426.34;;;17.41;99.08
25080;BME280;13071;48.868;9.996;2023-05-23T07:00:11;96428.78;;;18.11;91.67
25080;BME280;13071;48.868;9.996;2023-05-23T07:02:38;96424.53;;;18.18;92.37
25080;BME280;13071;48.868;9.996;2023-05-23T07:05:05;96424.00;;;17.91;91.66
25080;BME280;13071;48.868;9.996;2023-05-23T07:07:32;96434.31;;;18.15;90.94
25080;BME280;13071;48.868;9.996;2023-05-23T07:09:58;96432.31;;;18.08;90.62
25080;BME280;13071;48.868;9.996;2023-05-23T07:12:26;96435.34;;;17.93;89.91
25080;BME280;13071;48.868;9.996;2023-05-23T07:14:52;96440.94;;;18.18;89.54
25080;BME280;13071;48.868;9.996;2023-05-23T07:17:19;96438.53;;;17.51;91.87
25080;BME280;13071;48.868;9.996;2023-05-23T07:19:46;96436.59;;;17.55;92.77
25080;BME280;13071;48.868;9.996;2023-05-23T07:22:13;96442.19;;;17.65;91.73
25080;BME280;13071;48.868;9.996;2023-05-23T07:24:39;96439.28;;;17.48;92.83
25080;BME280;13071;48.868;9.996;2023-05-23T07:27:06;96446.44;;;17.59;92.36
25080;BME280;13071;48.868;9.996;2023-05-23T07:29:34;96438.34;;;17.74;92.09
25080;BME280;13071;48.868;9.996;2023-05-23T07:32:01;96452.97;;;17.48;92.55
25080;BME280;13071;48.868;9.996;2023-05-23T07:34:27;96443.38;;;17.24;93.98
25080;BME280;13071;48.868;9.996;2023-05-23T07:36:55;96455.09;;;17.24;93.29
25080;BME280;13071;48.868;9.996;2023-05-23T07:39:21;96454.66;;;17.19;94.15
25080;BME280;13071;48.868;9.996;2023-05-23T07:41:48;96457.16;;;17.35;91.42
25080;BME280;13071;48.868;9.996;2023-05-23T07:44:15;96454.53;;;17.05;89.31
25080;BME280;13071;48.868;9.996;2023-05-23T07:46:43;96462.63;;;16.94;89.62
25080;BME280;13071;48.868;9.996;2023-05-23T07:49:09;96460.47;;;17.14;89.17
25080;BME280;13071;48.868;9.996;2023-05-23T07:51:36;96450.66;;;17.09;88.53
25080;BME280;13071;48.868;9.996;2023-05-23T07:54:03;96457.03;;;17.20;88.31
25080;BME280;13071;48.868;9.996;2023-05-23T07:56:29;96460.66;;;17.32;88.17
25080;BME280;13071;48.868;9.996;2023-05-23T07:58:56;96466.63;;;17.44;87.79
25080;BME280;13071;48.868;9.996;2023-05-23T08:01:23;96457.41;;;17.59;87.61
25080;BME280;13071;48.868;9.996;2023-05-23T08:03:51;96462.84;;;18.10;88.02
25080;BME280;13071;48.868;9.996;2023-05-23T08:06:18;96457.53;;;18.46;87.61
25080;BME280;13071;48.868;9.996;2023-05-23T08:08:44;96462.94;;;18.35;87.11
25080;BME280;13071;48.868;9.996;2023-05-23T08:11:11;96457.84;;;17.68;87.72
25080;BME280;13071;48.868;9.996;2023-05-23T08:13:39;96461.09;;;17.85;86.02
25080;BME280;13071;48.868;9.996;2023-05-23T08:16:05;96461.72;;;17.60;87.75
25080;BME280;13071;48.868;9.996;2023-05-23T08:18:32;96463.47;;;17.42;87.92
25080;BME280;13071;48.868;9.996;2023-05-23T08:21:00;96465.47;;;17.49;88.35
25080;BME280;13071;48.868;9.996;2023-05-23T08:23:27;96459.69;;;17.57;88.73
25080;BME280;13071;48.868;9.996;2023-05-23T08:25:54;96456.88;;;18.01;87.41
25080;BME280;13071;48.868;9.996;2023-05-23T08:28:21;96458.94;;;18.15;86.16
25080;BME280;13071;48.868;9.996;2023-05-23T08:30:48;96456.13;;;18.77;82.70
25080;BME280;13071;48.868;9.996;2023-05-23T08:33:14;96457.03;;;19.41;79.41
25080;BME280;13071;48.868;9.996;2023-05-23T08:35:41;96459.22;;;18.72;81.71
25080;BME280;13071;48.868;9.996;2023-05-23T08:38:09;96464.00;;;18.92;81.16
25080;BME280;13071;48.868;9.996;2023-05-23T08:40:36;96465.22;;;19.09;79.75
25080;BME280;13071;48.868;9.996;2023-05-23T08:43:02;96473.72;;;18.72;79.50
25080;BME280;13071;48.868;9.996;2023-05-23T08:45:29;96476.09;;;18.77;79.42
25080;BME280;13071;48.868;9.996;2023-05-23T08:47:59;96485.16;;;18.16;80.69
25080;BME280;13071;48.868;9.996;2023-05-23T08:50:29;96471.50;;;18.23;83.26
25080;BME280;13071;48.868;9.996;2023-05-23T08:52:57;96477.72;;;18.13;81.83
25080;BME280;13071;48.868;9.996;2023-05-23T08:55:27;96481.50;;;17.91;84.73
25080;BME280;13071;48.868;9.996;2023-05-23T08:57:54;96488.50;;;17.44;84.69
25080;BME280;13071;48.868;9.996;2023-05-23T09:00:22;96493.34;;;17.61;84.28
25080;BME280;13071;48.868;9.996;2023-05-23T09:02:50;96485.44;;;17.53;84.42
25080;BME280;13071;48.868;9.996;2023-05-23T09:05:18;96495.09;;;17.36;85.51
25080;BME280;13071;48.868;9.996;2023-05-23T09:07:46;96496.84;;;17.18;85.10
25080;BME280;13071;48.868;9.996;2023-05-23T09:10:13;96494.88;;;17.15;85.71
25080;BME280;13071;48.868;9.996;2023-05-23T09:12:42;96498.75;;;17.14;86.75
25080;BME280;13071;48.868;9.996;2023-05-23T09:15:10;96499.56;;;17.18;86.81
25080;BME280;13071;48.868;9.996;2023-05-23T09:17:37;96502.09;;;16.97;86.60
25080;BME280;13071;48.868;9.996;2023-05-23T09:20:10;96504.91;;;17.04;85.97
25080;BME280;13071;48.868;9.996;2023-05-23T09:22:37;96503.88;;;17.19;86.02
25080;BME280;13071;48.868;9.996;2023-05-23T09:25:04;96506.72;;;17.30;86.38
25080;BME280;13071;48.868;9.996;2023-05-23T09:27:31;96507.44;;;17.60;84.64
25080;BME280;13071;48.868;9.996;2023-05-23T09:30:04;96499.44;;;17.85;84.64
25080;BME280;13071;48.868;9.996;2023-05-23T09:32:31;96502.97;;;17.89;82.08
25080;BME280;13071;48.868;9.996;2023-05-23T09:34:59;96503.75;;;17.89;82.77
25080;BME280;13071;48.868;9.996;2023-05-23T09:37:29;96502.16;;;18.46;81.87
25080;BME280;13071;48.868;9.996;2023-05-23T09:39:58;96504.94;;;18.50;80.69
25080;BME280;13071;48.868;9.996;2023-05-23T09:42:24;96504.97;;;18.57;80.00
25080;BME280;13071;48.868;9.996;2023-05-23T09:44:58;96499.25;;;18.18;81.08
25080;BME280;13071;48.868;9.996;2023-05-23T09:47:25;96504.38;;;17.68;81.23
25080;BME280;13071;48.868;9.996;2023-05-23T09:49:52;96520.56;;;17.47;81.13
25080;BME280;13071;48.868;9.996;2023-05-23T09:52:19;96510.72;;;17.80;81.21
25080;BME280;13071;48.868;9.996;2023-05-23T09:54:46;96506.88;;;17.88;80.74
25080;BME280;13071;48.868;9.996;2023-05-23T09:57:14;96512.22;;;18.25;79.33
25080;BME280;13071;48.868;9.996;2023-05-23T09:59:51;96519.53;;;18.72;80.00
25080;BME280;13071;48.868;9.996;2023-05-23T10:02:38;96523.00;;;18.54;77.34
25080;BME280;13071;48.868;9.996;2023-05-23T10:05:09;96515.22;;;18.67;77.57
25080;BME280;13071;48.868;9.996;2023-05-23T10:07:39;96514.41;;;18.63;77.93
25080;BME280;13071;48.868;9.996;2023-05-23T10:10:09;96518.69;;;18.61;75.78
25080;BME280;13071;48.868;9.996;2023-05-23T10:12:43;96522.75;;;18.95;75.60
25080;BME280;13071;48.868;9.996;2023-05-23T10:15:14;96509.50;;;19.11;74.13
25080;BME280;13071;48.868;9.996;2023-05-23T10:17:52;96522.16;;;19.48;75.75
25080;BME280;13071;48.868;9.996;2023-05-23T10:20:24;96526.03;;;19.32;73.49
25080;BME280;13071;48.868;9.996;2023-05-23T10:22:52;96530.19;;;18.84;73.71
25080;BME280;13071;48.868;9.996;2023-05-23T10:25:19;96520.03;;;18.98;74.34
25080;BME280;13071;48.868;9.996;2023-05-23T10:27:47;96517.72;;;19.15;74.13
25080;BME280;13071;48.868;9.996;2023-05-23T10:30:14;96509.38;;;18.76;73.98
25080;BME280;13071;48.868;9.996;2023-05-23T10:32:41;96511.78;;;18.91;72.48
25080;BME280;13071;48.868;9.996;2023-05-23T10:35:16;96520.75;;;18.74;74.41
25080;BME280;13071;48.868;9.996;2023-05-23T10:37:52;96513.91;;;18.50;74.14
25080;BME280;13071;48.868;9.996;2023-05-23T10:40:26;96515.34;;;18.23;73.59
25080;BME280;13071;48.868;9.996;2023-05-23T10:43:01;96521.22;;;18.94;72.03
25080;BME280;13071;48.868;9.996;2023-05-23T10:45:39;96518.28;;;18.55;72.83
25080;BME280;13071;48.868;9.996;2023-05-23T10:48:19;96520.53;;;18.39;73.61
25080;BME280;13071;48.868;9.996;2023-05-23T10:51:00;96519.94;;;18.74;73.37
25080;BME280;13071;48.868;9.996;2023-05-23T10:53:28;96521.16;;;18.87;72.51
25080;BME280;13071;48.868;9.996;2023-05-23T10:55:55;96512.19;;;19.01;73.10
25080;BME280;13071;48.868;9.996;2023-05-23T10:58:22;96521.75;;;19.46;71.56
25080;BME280;13071;48.868;9.996;2023-05-23T11:00:52;96519.97;;;18.81;70.45
25080;BME280;13071;48.868;9.996;2023-05-23T11:03:33;96523.22;;;19.15;71.02
25080;BME280;13071;48.868;9.996;2023-05-23T11:06:02;96526.59;;;18.76;72.18
25080;BME280;13071;48.868;9.996;2023-05-23T11:08:36;96525.00;;;18.68;72.77
25080;BME280;13071;48.868;9.996;2023-05-23T11:11:04;96522.31;;;18.10;72.59
25080;BME280;13071;48.868;9.996;2023-05-23T11:13:53;96523.91;;;18.15;72.83
25080;BME280;13071;48.868;9.996;2023-05-23T11:16:24;96521.91;;;18.73;72.12
25080;BME280;13071;48.868;9.996;2023-05-23T11:18:51;96520.97;;;18.51;71.39
25080;BME280;13071;48.868;9.996;2023-05-23T11:21:20;96527.13;;;19.10;71.38
25080;BME280;13071;48.868;9.996;2023-05-23T11:23:53;96535.56;;;18.66;72.54
25080;BME280;13071;48.868;9.996;2023-05-23T11:26:28;96537.97;;;18.78;71.84
25080;BME280;13071;48.868;9.996;2023-05-23T11:28:55;96530.66;;;19.07;71.16
25080;BME280;13071;48.868;9.996;2023-05-23T11:31:23;96543.47;;;18.82;70.72
25080;BME280;13071;48.868;9.996;2023-05-23T11:33:49;96534.25;;;19.36;70.16
25080;BME280;13071;48.868;9.996;2023-05-23T11:36:16;96543.66;;;18.48;70.43
25080;BME280;13071;48.868;9.996;2023-05-23T11:38:44;96539.28;;;18.37;70.14
25080;BME280;13071;48.868;9.996;2023-05-23T11:41:11;96530.84;;;18.60;68.65
25080;BME280;13071;48.868;9.996;2023-05-23T11:43:48;96534.75;;;18.59;69.12
25080;BME280;13071;48.868;9.996;2023-05-23T11:46:15;96549.31;;;18.73;69.37
25080;BME280;13071;48.868;9.996;2023-05-23T11:48:43;96541.25;;;19.19;68.41
25080;BME280;13071;48.868;9.996;2023-05-23T11:51:10;96543.19;;;19.12;67.55
25080;BME280;13071;48.868;9.996;2023-05-23T11:53:37;96540.31;;;18.73;69.98
25080;BME280;13071;48.868;9.996;2023-05-23T11:56:05;96536.34;;;18.60;70.46
25080;BME280;13071;48.868;9.996;2023-05-23T11:58:33;96534.66;;;18.44;70.33
25080;BME280;13071;48.868;9.996;2023-05-23T12:01:01;96542.09;;;18.47;69.17
25080;BME280;13071;48.868;9.996;2023-05-23T12:03:28;96537.38;;;18.44;69.04
25080;BME280;13071;48.868;9.996;2023-05-23T12:05:56;96547.19;;;18.49;68.25
25080;BME280;13071;48.868;9.996;2023-05-23T12:08:23;96538.28;;;18.59;68.35
25080;BME280;13071;48.868;9.996;2023-05-23T12:10:51;96536.50;;;19.06;69.23
25080;BME280;13071;48.868;9.996;2023-05-23T12:13:23;96533.81;;;19.13;67.64
25080;BME280;13071;48.868;9.996;2023-05-23T12:15:53;96530.31;;;19.23;65.17
25080;BME280;13071;48.868;9.996;2023-05-23T12:18:20;96530.00;;;19.56;64.05
25080;BME280;13071;48.868;9.996;2023-05-23T12:20:47;96526.03;;;19.43;64.80
25080;BME280;13071;48.868;9.996;2023-05-23T12:23:17;96524.91;;;20.18;62.34
25080;BME280;13071;48.868;9.996;2023-05-23T12:25:49;96531.97;;;19.59;65.45
25080;BME280;13071;48.868;9.996;2023-05-23T12:28:16;96528.84;;;20.07;65.12
25080;BME280;13071;48.868;9.996;2023-05-23T12:30:43;96537.84;;;19.79;62.65
25080;BME280;13071;48.868;9.996;2023-05-23T12:33:10;96519.03;;;20.06;65.28
25080;BME280;13071;48.868;9.996;2023-05-23T12:35:42;96510.38;;;20.18;62.17
25080;BME280;13071;48.868;9.996;2023-05-23T12:38:08;96520.59;;;19.78;63.86
25080;BME280;13071;48.868;9.996;2023-05-23T12:40:35;96509.22;;;19.94;63.32
25080;BME280;13071;48.868;9.996;2023-05-23T12:43:01;96505.59;;;20.57;60.96
25080;BME280;13071;48.868;9.996;2023-05-23T12:45:31;96506.31;;;20.79;61.91
25080;BME280;13071;48.868;9.996;2023-05-23T12:48:00;96512.34;;;19.64;65.91
25080;BME280;13071;48.868;9.996;2023-05-23T12:50:27;96516.22;;;19.28;66.85
25080;BME280;13071;48.868;9.996;2023-05-23T12:52:53;96511.47;;;19.18;67.47
25080;BME280;13071;48.868;9.996;2023-05-23T12:55:20;96528.97;;;18.81;67.02
25080;BME280;13071;48.868;9.996;2023-05-23T12:57:46;96520.78;;;18.88;66.80
25080;BME280;13071;48.868;9.996;2023-05-23T13:00:13;96514.44;;;18.67;67.25